Aviation Digital Data Service (ADDS)

Output produced by METARs form (1111 UTC 18 June 2019)
found at http://www.aviationweather.gov/metar/data/
 
Forecast for: NCRG (RAROTONGA COOK I, WS)
Text: TAF NCRG 181106Z 1812/1912 08013KT 9999 SCT020
Forecast period: 1200 UTC 18 June 2019 to 1200 UTC 19 June 2019
Forecast type: FROM: standard forecast or significant change
Winds: from the E (80 degrees) at 15 MPH (13 knots; 6.7 m/s)
Visibility: 6 or more miles 10+ km)
Ceiling: at least 12,000 feet AGL
Clouds: scattered clouds at 2000 feet AGL
Weather: no significant weather forecast for this period
Text: PROB30
Forecast period: 1800 UTC 18 June 2019 to 0000 UTC 19 June 2019
Forecast type: TEMPORARY: The following changes expected for less than half the time period
Visibility: 3 miles (5 km)
Ceiling: 1500 feet AGL
Clouds: broken clouds at 1500 feet AGL
Weather: SHRA  (rain showers)